sensor_id;sensor_type;location;lat;lon;timestamp;P1;durP1;ratioP1;P2;durP2;ratioP2
72156;SDS011;60035;52.122;5.406;2022-12-07T00:01:19;10.43;;;3.25;;
72156;SDS011;60035;52.122;5.406;2022-12-07T00:03:51;9.07;;;3.03;;
72156;SDS011;60035;52.122;5.406;2022-12-07T00:06:19;7.15;;;3.03;;
72156;SDS011;60035;52.122;5.406;2022-12-07T00:08:47;10.05;;;3.15;;
72156;SDS011;60035;52.122;5.406;2022-12-07T00:11:15;8.35;;;2.88;;
72156;SDS011;60035;52.122;5.406;2022-12-07T00:13:44;8.93;;;3.38;;
72156;SDS011;60035;52.122;5.406;2022-12-07T00:16:12;9.18;;;2.72;;
72156;SDS011;60035;52.122;5.406;2022-12-07T00:18:40;9.20;;;3.08;;
72156;SDS011;60035;52.122;5.406;2022-12-07T00:21:12;9.57;;;2.85;;
72156;SDS011;60035;52.122;5.406;2022-12-07T00:23:40;10.77;;;2.90;;
72156;SDS011;60035;52.122;5.406;2022-12-07T00:26:12;9.80;;;2.92;;
72156;SDS011;60035;52.122;5.406;2022-12-07T00:28:40;8.07;;;3.15;;
72156;SDS011;60035;52.122;5.406;2022-12-07T00:31:08;9.13;;;3.45;;
72156;SDS011;60035;52.122;5.406;2022-12-07T00:33:37;11.07;;;3.10;;
72156;SDS011;60035;52.122;5.406;2022-12-07T00:36:08;9.60;;;3.58;;
72156;SDS011;60035;52.122;5.406;2022-12-07T00:38:36;8.77;;;3.53;;
72156;SDS011;60035;52.122;5.406;2022-12-07T00:41:05;10.85;;;3.15;;
72156;SDS011;60035;52.122;5.406;2022-12-07T00:43:37;11.73;;;3.20;;
72156;SDS011;60035;52.122;5.406;2022-12-07T00:46:04;9.48;;;3.20;;
72156;SDS011;60035;52.122;5.406;2022-12-07T00:48:31;12.32;;;3.90;;
72156;SDS011;60035;52.122;5.406;2022-12-07T00:50:58;10.32;;;3.55;;
72156;SDS011;60035;52.122;5.406;2022-12-07T00:53:24;9.13;;;3.13;;
72156;SDS011;60035;52.122;5.406;2022-12-07T00:55:52;7.20;;;2.83;;
72156;SDS011;60035;52.122;5.406;2022-12-07T00:58:19;6.72;;;2.95;;
72156;SDS011;60035;52.122;5.406;2022-12-07T01:00:46;10.15;;;3.45;;
72156;SDS011;60035;52.122;5.406;2022-12-07T01:03:13;8.15;;;3.22;;
72156;SDS011;60035;52.122;5.406;2022-12-07T01:05:48;13.15;;;3.15;;
72156;SDS011;60035;52.122;5.406;2022-12-07T01:08:17;9.15;;;2.95;;
72156;SDS011;60035;52.122;5.406;2022-12-07T01:10:44;10.60;;;2.70;;
72156;SDS011;60035;52.122;5.406;2022-12-07T01:13:10;7.32;;;2.55;;
72156;SDS011;60035;52.122;5.406;2022-12-07T01:15:41;9.05;;;2.22;;
72156;SDS011;60035;52.122;5.406;2022-12-07T01:18:09;10.05;;;2.85;;
72156;SDS011;60035;52.122;5.406;2022-12-07T01:20:36;11.07;;;2.13;;
72156;SDS011;60035;52.122;5.406;2022-12-07T01:23:03;8.30;;;2.28;;
72156;SDS011;60035;52.122;5.406;2022-12-07T01:25:29;9.23;;;2.45;;
72156;SDS011;60035;52.122;5.406;2022-12-07T01:27:57;11.27;;;2.25;;
72156;SDS011;60035;52.122;5.406;2022-12-07T01:30:23;6.15;;;2.13;;
72156;SDS011;60035;52.122;5.406;2022-12-07T01:32:50;9.95;;;2.40;;
72156;SDS011;60035;52.122;5.406;2022-12-07T01:35:17;7.07;;;2.05;;
72156;SDS011;60035;52.122;5.406;2022-12-07T01:37:43;8.40;;;2.22;;
72156;SDS011;60035;52.122;5.406;2022-12-07T01:40:10;8.43;;;1.85;;
72156;SDS011;60035;52.122;5.406;2022-12-07T01:42:37;5.40;;;1.77;;
72156;SDS011;60035;52.122;5.406;2022-12-07T01:48:05;9.77;;;2.13;;
72156;SDS011;60035;52.122;5.406;2022-12-07T01:50:35;10.23;;;2.05;;
72156;SDS011;60035;52.122;5.406;2022-12-07T01:53:04;6.50;;;2.25;;
72156;SDS011;60035;52.122;5.406;2022-12-07T01:55:35;14.18;;;2.00;;
72156;SDS011;60035;52.122;5.406;2022-12-07T01:58:06;5.80;;;1.83;;
72156;SDS011;60035;52.122;5.406;2022-12-07T02:00:33;6.28;;;2.15;;
72156;SDS011;60035;52.122;5.406;2022-12-07T02:03:01;7.10;;;1.40;;
72156;SDS011;60035;52.122;5.406;2022-12-07T02:05:33;7.70;;;1.63;;
72156;SDS011;60035;52.122;5.406;2022-12-07T02:08:01;7.15;;;1.63;;
72156;SDS011;60035;52.122;5.406;2022-12-07T02:10:29;7.20;;;1.92;;
72156;SDS011;60035;52.122;5.406;2022-12-07T02:15:29;10.07;;;1.95;;
72156;SDS011;60035;52.122;5.406;2022-12-07T02:23:23;5.50;;;1.40;;
72156;SDS011;60035;52.122;5.406;2022-12-07T02:31:30;6.35;;;1.45;;
72156;SDS011;60035;52.122;5.406;2022-12-07T02:34:03;8.68;;;1.60;;
72156;SDS011;60035;52.122;5.406;2022-12-07T02:36:38;7.47;;;1.67;;
72156;SDS011;60035;52.122;5.406;2022-12-07T02:39:11;8.00;;;1.30;;
72156;SDS011;60035;52.122;5.406;2022-12-07T02:41:44;7.03;;;1.45;;
72156;SDS011;60035;52.122;5.406;2022-12-07T02:44:14;12.40;;;1.83;;
72156;SDS011;60035;52.122;5.406;2022-12-07T02:46:46;6.70;;;1.23;;
72156;SDS011;60035;52.122;5.406;2022-12-07T02:49:18;8.95;;;1.52;;
72156;SDS011;60035;52.122;5.406;2022-12-07T02:51:47;6.25;;;1.30;;
72156;SDS011;60035;52.122;5.406;2022-12-07T02:54:16;7.85;;;1.52;;
72156;SDS011;60035;52.122;5.406;2022-12-07T02:56:46;6.18;;;1.50;;
72156;SDS011;60035;52.122;5.406;2022-12-07T03:08:28;7.35;;;1.35;;
72156;SDS011;60035;52.122;5.406;2022-12-07T03:10:58;6.63;;;1.52;;
72156;SDS011;60035;52.122;5.406;2022-12-07T03:16:15;4.78;;;1.27;;
72156;SDS011;60035;52.122;5.406;2022-12-07T03:19:07;5.70;;;1.55;;
72156;SDS011;60035;52.122;5.406;2022-12-07T03:21:43;5.28;;;1.35;;
72156;SDS011;60035;52.122;5.406;2022-12-07T03:24:18;5.47;;;1.20;;
72156;SDS011;60035;52.122;5.406;2022-12-07T03:27:09;3.55;;;0.95;;
72156;SDS011;60035;52.122;5.406;2022-12-07T03:29:44;5.82;;;1.02;;
72156;SDS011;60035;52.122;5.406;2022-12-07T03:32:16;6.32;;;1.30;;
72156;SDS011;60035;52.122;5.406;2022-12-07T03:34:53;6.97;;;1.70;;
72156;SDS011;60035;52.122;5.406;2022-12-07T03:37:23;6.30;;;1.10;;
72156;SDS011;60035;52.122;5.406;2022-12-07T03:40:08;7.57;;;1.50;;
72156;SDS011;60035;52.122;5.406;2022-12-07T03:42:40;5.60;;;1.48;;
72156;SDS011;60035;52.122;5.406;2022-12-07T03:45:07;9.20;;;1.67;;
72156;SDS011;60035;52.122;5.406;2022-12-07T03:47:38;5.55;;;1.80;;
72156;SDS011;60035;52.122;5.406;2022-12-07T03:52:53;7.03;;;1.60;;
72156;SDS011;60035;52.122;5.406;2022-12-07T03:55:31;6.47;;;1.80;;
72156;SDS011;60035;52.122;5.406;2022-12-07T03:58:03;7.85;;;1.90;;
72156;SDS011;60035;52.122;5.406;2022-12-07T04:00:32;9.88;;;1.73;;
72156;SDS011;60035;52.122;5.406;2022-12-07T04:02:59;7.25;;;1.50;;
72156;SDS011;60035;52.122;5.406;2022-12-07T04:05:25;5.60;;;1.55;;
72156;SDS011;60035;52.122;5.406;2022-12-07T04:07:55;6.90;;;1.80;;
72156;SDS011;60035;52.122;5.406;2022-12-07T04:10:21;9.20;;;1.50;;
72156;SDS011;60035;52.122;5.406;2022-12-07T04:12:48;5.20;;;1.20;;
72156;SDS011;60035;52.122;5.406;2022-12-07T04:15:14;5.00;;;1.63;;
72156;SDS011;60035;52.122;5.406;2022-12-07T04:17:41;7.07;;;1.90;;
72156;SDS011;60035;52.122;5.406;2022-12-07T04:20:08;5.50;;;1.23;;
72156;SDS011;60035;52.122;5.406;2022-12-07T04:22:35;5.55;;;1.27;;
72156;SDS011;60035;52.122;5.406;2022-12-07T04:25:01;8.25;;;1.60;;
72156;SDS011;60035;52.122;5.406;2022-12-07T04:27:29;6.30;;;1.27;;
72156;SDS011;60035;52.122;5.406;2022-12-07T04:29:55;9.18;;;1.75;;
72156;SDS011;60035;52.122;5.406;2022-12-07T04:32:22;6.85;;;1.35;;
72156;SDS011;60035;52.122;5.406;2022-12-07T04:34:49;10.77;;;1.23;;
72156;SDS011;60035;52.122;5.406;2022-12-07T04:39:47;5.88;;;1.40;;
72156;SDS011;60035;52.122;5.406;2022-12-07T04:42:14;6.38;;;1.60;;
72156;SDS011;60035;52.122;5.406;2022-12-07T04:44:41;5.63;;;1.17;;
72156;SDS011;60035;52.122;5.406;2022-12-07T04:47:10;3.38;;;1.00;;
72156;SDS011;60035;52.122;5.406;2022-12-07T04:49:37;7.30;;;1.30;;
72156;SDS011;60035;52.122;5.406;2022-12-07T04:52:03;8.80;;;1.52;;
72156;SDS011;60035;52.122;5.406;2022-12-07T04:54:30;2.88;;;0.82;;
72156;SDS011;60035;52.122;5.406;2022-12-07T04:56:57;5.20;;;1.08;;
72156;SDS011;60035;52.122;5.406;2022-12-07T04:59:23;7.45;;;0.90;;
72156;SDS011;60035;52.122;5.406;2022-12-07T05:01:50;4.80;;;1.00;;
72156;SDS011;60035;52.122;5.406;2022-12-07T05:04:16;5.97;;;1.20;;
72156;SDS011;60035;52.122;5.406;2022-12-07T05:06:44;5.38;;;1.05;;
72156;SDS011;60035;52.122;5.406;2022-12-07T05:09:10;6.88;;;0.93;;
72156;SDS011;60035;52.122;5.406;2022-12-07T05:11:37;5.50;;;1.02;;
72156;SDS011;60035;52.122;5.406;2022-12-07T05:14:15;4.05;;;0.52;;
72156;SDS011;60035;52.122;5.406;2022-12-07T05:19:11;5.38;;;1.00;;
72156;SDS011;60035;52.122;5.406;2022-12-07T05:21:38;7.28;;;0.98;;
72156;SDS011;60035;52.122;5.406;2022-12-07T05:24:05;6.30;;;0.63;;
72156;SDS011;60035;52.122;5.406;2022-12-07T05:26:33;6.03;;;1.00;;
72156;SDS011;60035;52.122;5.406;2022-12-07T05:29:00;6.70;;;0.80;;
72156;SDS011;60035;52.122;5.406;2022-12-07T05:31:27;4.43;;;0.68;;
72156;SDS011;60035;52.122;5.406;2022-12-07T05:33:54;4.32;;;0.75;;
72156;SDS011;60035;52.122;5.406;2022-12-07T05:36:21;3.72;;;0.70;;
72156;SDS011;60035;52.122;5.406;2022-12-07T05:38:48;5.90;;;0.70;;
72156;SDS011;60035;52.122;5.406;2022-12-07T05:41:15;3.45;;;0.70;;
72156;SDS011;60035;52.122;5.406;2022-12-07T05:44:02;5.70;;;0.95;;
72156;SDS011;60035;52.122;5.406;2022-12-07T05:46:29;5.68;;;0.82;;
72156;SDS011;60035;52.122;5.406;2022-12-07T05:48:56;5.88;;;0.73;;
72156;SDS011;60035;52.122;5.406;2022-12-07T05:51:22;5.18;;;0.73;;
72156;SDS011;60035;52.122;5.406;2022-12-07T05:53:53;5.63;;;0.90;;
72156;SDS011;60035;52.122;5.406;2022-12-07T05:56:19;7.13;;;0.70;;
72156;SDS011;60035;52.122;5.406;2022-12-07T05:58:46;3.53;;;0.57;;
72156;SDS011;60035;52.122;5.406;2022-12-07T06:01:31;4.55;;;0.93;;
72156;SDS011;60035;52.122;5.406;2022-12-07T06:03:58;4.82;;;0.65;;
72156;SDS011;60035;52.122;5.406;2022-12-07T06:06:25;8.10;;;0.75;;
72156;SDS011;60035;52.122;5.406;2022-12-07T06:08:52;2.75;;;0.60;;
72156;SDS011;60035;52.122;5.406;2022-12-07T06:11:18;5.07;;;0.70;;
72156;SDS011;60035;52.122;5.406;2022-12-07T06:14:04;5.50;;;0.80;;
72156;SDS011;60035;52.122;5.406;2022-12-07T06:16:30;3.33;;;0.90;;
72156;SDS011;60035;52.122;5.406;2022-12-07T06:18:57;7.32;;;0.80;;
72156;SDS011;60035;52.122;5.406;2022-12-07T06:21:23;7.57;;;1.10;;
72156;SDS011;60035;52.122;5.406;2022-12-07T06:23:52;5.45;;;0.88;;
72156;SDS011;60035;52.122;5.406;2022-12-07T06:26:19;6.85;;;1.30;;
72156;SDS011;60035;52.122;5.406;2022-12-07T06:28:45;6.00;;;1.23;;
72156;SDS011;60035;52.122;5.406;2022-12-07T06:31:12;4.70;;;1.35;;
72156;SDS011;60035;52.122;5.406;2022-12-07T06:33:39;8.52;;;1.00;;
72156;SDS011;60035;52.122;5.406;2022-12-07T06:36:06;9.25;;;1.08;;
72156;SDS011;60035;52.122;5.406;2022-12-07T06:38:33;6.03;;;1.20;;
72156;SDS011;60035;52.122;5.406;2022-12-07T06:41:00;6.57;;;1.00;;
72156;SDS011;60035;52.122;5.406;2022-12-07T06:43:27;8.02;;;1.17;;
72156;SDS011;60035;52.122;5.406;2022-12-07T06:45:55;6.35;;;1.40;;
72156;SDS011;60035;52.122;5.406;2022-12-07T06:48:22;7.38;;;1.02;;
72156;SDS011;60035;52.122;5.406;2022-12-07T06:50:49;7.32;;;1.30;;
72156;SDS011;60035;52.122;5.406;2022-12-07T06:53:20;6.80;;;1.30;;
72156;SDS011;60035;52.122;5.406;2022-12-07T06:55:47;6.85;;;1.08;;
72156;SDS011;60035;52.122;5.406;2022-12-07T06:58:14;7.03;;;1.45;;
72156;SDS011;60035;52.122;5.406;2022-12-07T07:00:40;6.22;;;1.30;;
72156;SDS011;60035;52.122;5.406;2022-12-07T07:03:07;6.32;;;1.50;;
72156;SDS011;60035;52.122;5.406;2022-12-07T07:05:34;6.30;;;1.33;;
72156;SDS011;60035;52.122;5.406;2022-12-07T07:08:01;6.38;;;1.10;;
72156;SDS011;60035;52.122;5.406;2022-12-07T07:10:48;11.00;;;1.30;;
72156;SDS011;60035;52.122;5.406;2022-12-07T07:13:15;5.97;;;1.33;;
72156;SDS011;60035;52.122;5.406;2022-12-07T07:15:41;3.53;;;0.90;;
72156;SDS011;60035;52.122;5.406;2022-12-07T07:18:08;4.97;;;1.35;;
72156;SDS011;60035;52.122;5.406;2022-12-07T07:20:37;6.95;;;1.33;;
72156;SDS011;60035;52.122;5.406;2022-12-07T07:23:04;11.38;;;1.48;;
72156;SDS011;60035;52.122;5.406;2022-12-07T07:25:31;5.45;;;1.60;;
72156;SDS011;60035;52.122;5.406;2022-12-07T07:27:58;4.70;;;1.38;;
72156;SDS011;60035;52.122;5.406;2022-12-07T07:30:25;5.05;;;1.63;;
72156;SDS011;60035;52.122;5.406;2022-12-07T07:33:01;8.80;;;1.58;;
72156;SDS011;60035;52.122;5.406;2022-12-07T07:35:28;7.75;;;1.40;;
72156;SDS011;60035;52.122;5.406;2022-12-07T07:37:56;4.72;;;1.05;;
72156;SDS011;60035;52.122;5.406;2022-12-07T07:40:23;6.47;;;1.38;;
72156;SDS011;60035;52.122;5.406;2022-12-07T07:42:50;6.90;;;1.63;;
72156;SDS011;60035;52.122;5.406;2022-12-07T07:45:18;6.25;;;1.25;;
72156;SDS011;60035;52.122;5.406;2022-12-07T07:47:46;7.55;;;1.38;;
72156;SDS011;60035;52.122;5.406;2022-12-07T07:50:13;8.40;;;1.55;;
72156;SDS011;60035;52.122;5.406;2022-12-07T07:52:41;5.57;;;1.27;;
72156;SDS011;60035;52.122;5.406;2022-12-07T07:55:07;6.10;;;1.35;;
72156;SDS011;60035;52.122;5.406;2022-12-07T07:57:35;7.20;;;1.23;;
72156;SDS011;60035;52.122;5.406;2022-12-07T08:00:06;5.13;;;1.00;;
72156;SDS011;60035;52.122;5.406;2022-12-07T08:02:35;7.75;;;1.48;;
72156;SDS011;60035;52.122;5.406;2022-12-07T08:05:02;7.25;;;1.30;;
72156;SDS011;60035;52.122;5.406;2022-12-07T08:07:28;10.52;;;1.90;;
72156;SDS011;60035;52.122;5.406;2022-12-07T08:09:55;5.85;;;1.27;;
72156;SDS011;60035;52.122;5.406;2022-12-07T08:12:21;6.25;;;1.13;;
72156;SDS011;60035;52.122;5.406;2022-12-07T08:14:48;6.55;;;1.42;;
72156;SDS011;60035;52.122;5.406;2022-12-07T08:17:15;3.50;;;1.15;;
72156;SDS011;60035;52.122;5.406;2022-12-07T08:19:41;10.30;;;1.48;;
72156;SDS011;60035;52.122;5.406;2022-12-07T08:22:08;8.60;;;1.02;;
72156;SDS011;60035;52.122;5.406;2022-12-07T08:24:34;6.47;;;1.48;;
72156;SDS011;60035;52.122;5.406;2022-12-07T08:27:02;7.30;;;1.58;;
72156;SDS011;60035;52.122;5.406;2022-12-07T08:29:31;4.63;;;1.27;;
72156;SDS011;60035;52.122;5.406;2022-12-07T08:31:58;6.57;;;1.20;;
72156;SDS011;60035;52.122;5.406;2022-12-07T08:34:33;9.25;;;1.77;;
72156;SDS011;60035;52.122;5.406;2022-12-07T08:37:00;6.00;;;1.50;;
72156;SDS011;60035;52.122;5.406;2022-12-07T08:39:26;6.40;;;1.23;;
72156;SDS011;60035;52.122;5.406;2022-12-07T08:41:57;5.82;;;1.10;;
72156;SDS011;60035;52.122;5.406;2022-12-07T08:44:24;7.25;;;1.58;;
72156;SDS011;60035;52.122;5.406;2022-12-07T08:46:52;9.10;;;1.33;;
72156;SDS011;60035;52.122;5.406;2022-12-07T08:49:27;7.30;;;1.55;;
72156;SDS011;60035;52.122;5.406;2022-12-07T08:51:59;9.77;;;2.42;;
72156;SDS011;60035;52.122;5.406;2022-12-07T08:54:26;11.80;;;2.50;;
72156;SDS011;60035;52.122;5.406;2022-12-07T08:56:55;12.48;;;1.92;;
72156;SDS011;60035;52.122;5.406;2022-12-07T08:59:25;7.70;;;1.48;;
72156;SDS011;60035;52.122;5.406;2022-12-07T09:01:53;6.13;;;1.30;;
72156;SDS011;60035;52.122;5.406;2022-12-07T09:04:20;4.80;;;1.05;;
72156;SDS011;60035;52.122;5.406;2022-12-07T09:06:47;5.68;;;1.05;;
72156;SDS011;60035;52.122;5.406;2022-12-07T09:09:14;9.05;;;1.02;;
72156;SDS011;60035;52.122;5.406;2022-12-07T09:11:44;4.65;;;0.65;;
72156;SDS011;60035;52.122;5.406;2022-12-07T09:14:16;4.50;;;0.90;;
72156;SDS011;60035;52.122;5.406;2022-12-07T09:16:43;4.55;;;0.98;;
72156;SDS011;60035;52.122;5.406;2022-12-07T09:19:09;3.72;;;0.95;;
72156;SDS011;60035;52.122;5.406;2022-12-07T09:21:36;5.20;;;1.02;;
72156;SDS011;60035;52.122;5.406;2022-12-07T09:24:02;5.00;;;0.93;;
72156;SDS011;60035;52.122;5.406;2022-12-07T09:26:29;8.25;;;1.10;;
72156;SDS011;60035;52.122;5.406;2022-12-07T09:28:55;7.25;;;1.13;;
72156;SDS011;60035;52.122;5.406;2022-12-07T09:31:22;7.03;;;1.15;;
72156;SDS011;60035;52.122;5.406;2022-12-07T09:34:09;4.03;;;1.10;;
72156;SDS011;60035;52.122;5.406;2022-12-07T09:36:35;7.82;;;1.05;;
72156;SDS011;60035;52.122;5.406;2022-12-07T09:39:02;3.58;;;1.30;;
72156;SDS011;60035;52.122;5.406;2022-12-07T09:41:31;6.38;;;1.08;;
72156;SDS011;60035;52.122;5.406;2022-12-07T09:44:06;5.35;;;0.93;;
72156;SDS011;60035;52.122;5.406;2022-12-07T09:46:42;6.40;;;1.20;;
72156;SDS011;60035;52.122;5.406;2022-12-07T09:49:20;4.28;;;0.98;;
72156;SDS011;60035;52.122;5.406;2022-12-07T09:54:38;4.20;;;1.10;;
72156;SDS011;60035;52.122;5.406;2022-12-07T09:57:10;4.43;;;1.05;;
72156;SDS011;60035;52.122;5.406;2022-12-07T09:59:38;5.85;;;0.85;;
72156;SDS011;60035;52.122;5.406;2022-12-07T10:04:48;7.30;;;1.33;;
72156;SDS011;60035;52.122;5.406;2022-12-07T10:07:15;4.63;;;0.98;;
72156;SDS011;60035;52.122;5.406;2022-12-07T10:09:41;9.77;;;1.55;;
72156;SDS011;60035;52.122;5.406;2022-12-07T10:12:10;5.85;;;0.90;;
72156;SDS011;60035;52.122;5.406;2022-12-07T10:14:54;3.80;;;1.05;;
72156;SDS011;60035;52.122;5.406;2022-12-07T10:17:38;4.63;;;0.95;;
72156;SDS011;60035;52.122;5.406;2022-12-07T10:20:08;7.38;;;0.90;;
72156;SDS011;60035;52.122;5.406;2022-12-07T10:22:53;4.70;;;0.73;;
72156;SDS011;60035;52.122;5.406;2022-12-07T10:25:26;4.03;;;0.65;;
72156;SDS011;60035;52.122;5.406;2022-12-07T10:30:45;5.35;;;1.10;;
72156;SDS011;60035;52.122;5.406;2022-12-07T10:36:20;6.20;;;1.20;;
72156;SDS011;60035;52.122;5.406;2022-12-07T10:39:10;5.60;;;1.02;;
72156;SDS011;60035;52.122;5.406;2022-12-07T10:41:55;4.03;;;0.95;;
72156;SDS011;60035;52.122;5.406;2022-12-07T10:44:24;5.00;;;1.05;;
72156;SDS011;60035;52.122;5.406;2022-12-07T10:47:01;7.28;;;1.17;;
72156;SDS011;60035;52.122;5.406;2022-12-07T11:11:19;4.45;;;0.90;;
72156;SDS011;60035;52.122;5.406;2022-12-07T11:16:50;5.38;;;1.25;;
72156;SDS011;60035;52.122;5.406;2022-12-07T11:22:30;5.95;;;0.85;;
72156;SDS011;60035;52.122;5.406;2022-12-07T11:30:33;6.40;;;0.80;;
72156;SDS011;60035;52.122;5.406;2022-12-07T11:33:15;5.90;;;0.98;;
72156;SDS011;60035;52.122;5.406;2022-12-07T11:36:12;4.00;;;0.80;;
72156;SDS011;60035;52.122;5.406;2022-12-07T11:39:00;10.10;;;1.13;;
72156;SDS011;60035;52.122;5.406;2022-12-07T11:41:34;8.52;;;1.00;;
72156;SDS011;60035;52.122;5.406;2022-12-07T11:52:42;5.35;;;1.35;;
72156;SDS011;60035;52.122;5.406;2022-12-07T11:55:18;7.80;;;1.27;;
72156;SDS011;60035;52.122;5.406;2022-12-07T11:58:03;7.22;;;1.75;;
72156;SDS011;60035;52.122;5.406;2022-12-07T12:00:38;7.40;;;1.30;;
72156;SDS011;60035;52.122;5.406;2022-12-07T12:03:15;4.50;;;1.13;;
72156;SDS011;60035;52.122;5.406;2022-12-07T12:05:50;5.68;;;1.58;;
72156;SDS011;60035;52.122;5.406;2022-12-07T12:08:30;6.38;;;1.33;;
72156;SDS011;60035;52.122;5.406;2022-12-07T12:11:46;2.47;;;0.90;;
72156;SDS011;60035;52.122;5.406;2022-12-07T12:20:44;2.58;;;0.60;;
72156;SDS011;60035;52.122;5.406;2022-12-07T12:26:20;5.75;;;1.13;;
72156;SDS011;60035;52.122;5.406;2022-12-07T12:31:47;4.95;;;0.82;;
72156;SDS011;60035;52.122;5.406;2022-12-07T12:34:32;3.70;;;0.90;;
72156;SDS011;60035;52.122;5.406;2022-12-07T12:42:51;5.38;;;0.65;;
72156;SDS011;60035;52.122;5.406;2022-12-07T12:45:26;4.47;;;0.75;;
72156;SDS011;60035;52.122;5.406;2022-12-07T12:55:44;5.95;;;0.82;;
72156;SDS011;60035;52.122;5.406;2022-12-07T13:00:47;5.75;;;0.80;;
72156;SDS011;60035;52.122;5.406;2022-12-07T13:03:35;2.97;;;0.63;;
72156;SDS011;60035;52.122;5.406;2022-12-07T13:06:31;1.70;;;0.35;;
72156;SDS011;60035;52.122;5.406;2022-12-07T13:09:01;1.95;;;0.30;;
72156;SDS011;60035;52.122;5.406;2022-12-07T13:11:35;3.47;;;0.38;;
72156;SDS011;60035;52.122;5.406;2022-12-07T13:19:59;3.25;;;0.63;;
72156;SDS011;60035;52.122;5.406;2022-12-07T13:27:26;1.88;;;0.63;;
72156;SDS011;60035;52.122;5.406;2022-12-07T13:29:53;1.90;;;0.57;;
72156;SDS011;60035;52.122;5.406;2022-12-07T13:32:23;2.85;;;0.70;;
72156;SDS011;60035;52.122;5.406;2022-12-07T13:34:51;3.33;;;0.85;;
72156;SDS011;60035;52.122;5.406;2022-12-07T13:37:26;2.22;;;0.70;;
72156;SDS011;60035;52.122;5.406;2022-12-07T13:40:16;3.75;;;0.55;;
72156;SDS011;60035;52.122;5.406;2022-12-07T13:42:45;2.45;;;0.50;;
72156;SDS011;60035;52.122;5.406;2022-12-07T13:51:21;3.03;;;0.60;;
72156;SDS011;60035;52.122;5.406;2022-12-07T13:53:52;2.85;;;0.80;;
72156;SDS011;60035;52.122;5.406;2022-12-07T13:56:26;2.83;;;0.70;;
72156;SDS011;60035;52.122;5.406;2022-12-07T13:59:00;1.92;;;0.73;;
72156;SDS011;60035;52.122;5.406;2022-12-07T14:01:28;3.55;;;1.10;;
72156;SDS011;60035;52.122;5.406;2022-12-07T14:04:15;4.57;;;0.70;;
72156;SDS011;60035;52.122;5.406;2022-12-07T14:06:47;3.45;;;0.93;;
72156;SDS011;60035;52.122;5.406;2022-12-07T14:09:23;6.35;;;1.08;;
72156;SDS011;60035;52.122;5.406;2022-12-07T14:11:52;6.18;;;1.48;;
72156;SDS011;60035;52.122;5.406;2022-12-07T14:14:21;6.20;;;1.02;;
72156;SDS011;60035;52.122;5.406;2022-12-07T14:17:15;4.03;;;1.10;;
72156;SDS011;60035;52.122;5.406;2022-12-07T14:19:48;6.85;;;1.33;;
72156;SDS011;60035;52.122;5.406;2022-12-07T14:25:00;3.75;;;1.30;;
72156;SDS011;60035;52.122;5.406;2022-12-07T14:27:39;3.25;;;0.82;;
72156;SDS011;60035;52.122;5.406;2022-12-07T14:30:16;3.85;;;0.93;;
72156;SDS011;60035;52.122;5.406;2022-12-07T14:32:44;6.47;;;1.42;;
72156;SDS011;60035;52.122;5.406;2022-12-07T14:35:16;6.72;;;2.03;;
72156;SDS011;60035;52.122;5.406;2022-12-07T14:37:45;3.90;;;1.00;;
72156;SDS011;60035;52.122;5.406;2022-12-07T14:40:18;6.35;;;0.90;;
72156;SDS011;60035;52.122;5.406;2022-12-07T14:42:55;4.78;;;1.10;;
72156;SDS011;60035;52.122;5.406;2022-12-07T14:45:26;5.20;;;0.95;;
72156;SDS011;60035;52.122;5.406;2022-12-07T14:47:52;4.07;;;1.05;;
72156;SDS011;60035;52.122;5.406;2022-12-07T14:50:45;4.07;;;1.42;;
72156;SDS011;60035;52.122;5.406;2022-12-07T14:53:41;6.57;;;1.05;;
72156;SDS011;60035;52.122;5.406;2022-12-07T14:56:18;2.78;;;0.98;;
72156;SDS011;60035;52.122;5.406;2022-12-07T14:58:45;6.75;;;1.08;;
72156;SDS011;60035;52.122;5.406;2022-12-07T15:01:14;10.30;;;3.03;;
72156;SDS011;60035;52.122;5.406;2022-12-07T15:03:40;7.65;;;1.42;;
72156;SDS011;60035;52.122;5.406;2022-12-07T15:06:07;3.88;;;1.02;;
72156;SDS011;60035;52.122;5.406;2022-12-07T15:08:34;4.97;;;1.50;;
72156;SDS011;60035;52.122;5.406;2022-12-07T15:11:00;4.88;;;1.65;;
72156;SDS011;60035;52.122;5.406;2022-12-07T15:13:28;4.13;;;0.75;;
72156;SDS011;60035;52.122;5.406;2022-12-07T15:16:15;5.50;;;1.10;;
72156;SDS011;60035;52.122;5.406;2022-12-07T15:18:45;2.25;;;0.60;;
72156;SDS011;60035;52.122;5.406;2022-12-07T15:21:32;5.93;;;0.70;;
72156;SDS011;60035;52.122;5.406;2022-12-07T15:23:58;2.47;;;0.52;;
72156;SDS011;60035;52.122;5.406;2022-12-07T15:26:25;3.42;;;0.70;;
72156;SDS011;60035;52.122;5.406;2022-12-07T15:28:52;2.05;;;0.50;;
72156;SDS011;60035;52.122;5.406;2022-12-07T15:31:20;6.47;;;0.82;;
72156;SDS011;60035;52.122;5.406;2022-12-07T15:34:07;3.50;;;1.25;;
72156;SDS011;60035;52.122;5.406;2022-12-07T15:36:33;6.20;;;1.05;;
72156;SDS011;60035;52.122;5.406;2022-12-07T15:39:01;3.67;;;0.88;;
72156;SDS011;60035;52.122;5.406;2022-12-07T15:41:39;4.00;;;0.95;;
72156;SDS011;60035;52.122;5.406;2022-12-07T15:44:06;4.72;;;1.38;;
72156;SDS011;60035;52.122;5.406;2022-12-07T15:46:56;6.15;;;1.50;;
72156;SDS011;60035;52.122;5.406;2022-12-07T15:49:23;5.47;;;1.48;;
72156;SDS011;60035;52.122;5.406;2022-12-07T15:51:50;9.23;;;1.40;;
72156;SDS011;60035;52.122;5.406;2022-12-07T15:54:21;6.40;;;1.45;;
72156;SDS011;60035;52.122;5.406;2022-12-07T15:56:48;6.03;;;1.33;;
72156;SDS011;60035;52.122;5.406;2022-12-07T15:59:14;3.97;;;1.05;;
72156;SDS011;60035;52.122;5.406;2022-12-07T16:01:42;5.60;;;1.02;;
72156;SDS011;60035;52.122;5.406;2022-12-07T16:04:09;4.68;;;1.25;;
72156;SDS011;60035;52.122;5.406;2022-12-07T16:06:35;8.68;;;1.55;;
72156;SDS011;60035;52.122;5.406;2022-12-07T16:09:03;6.28;;;1.02;;
72156;SDS011;60035;52.122;5.406;2022-12-07T16:11:30;6.13;;;1.25;;
72156;SDS011;60035;52.122;5.406;2022-12-07T16:13:57;4.07;;;1.00;;
72156;SDS011;60035;52.122;5.406;2022-12-07T16:16:23;5.70;;;0.70;;
72156;SDS011;60035;52.122;5.406;2022-12-07T16:18:51;4.82;;;1.17;;
72156;SDS011;60035;52.122;5.406;2022-12-07T16:21:18;11.63;;;3.45;;
72156;SDS011;60035;52.122;5.406;2022-12-07T16:23:50;7.60;;;2.70;;
72156;SDS011;60035;52.122;5.406;2022-12-07T16:26:18;7.28;;;1.80;;
72156;SDS011;60035;52.122;5.406;2022-12-07T16:28:51;7.18;;;1.10;;
72156;SDS011;60035;52.122;5.406;2022-12-07T16:33:46;7.38;;;0.70;;
72156;SDS011;60035;52.122;5.406;2022-12-07T16:36:13;6.28;;;0.90;;
72156;SDS011;60035;52.122;5.406;2022-12-07T16:39:03;7.95;;;2.60;;
72156;SDS011;60035;52.122;5.406;2022-12-07T16:41:31;15.07;;;5.03;;
72156;SDS011;60035;52.122;5.406;2022-12-07T16:44:09;11.13;;;3.40;;
72156;SDS011;60035;52.122;5.406;2022-12-07T16:46:36;7.22;;;2.40;;
72156;SDS011;60035;52.122;5.406;2022-12-07T16:49:04;6.57;;;1.52;;
72156;SDS011;60035;52.122;5.406;2022-12-07T16:51:31;5.15;;;1.73;;
72156;SDS011;60035;52.122;5.406;2022-12-07T16:53:59;3.75;;;1.13;;
72156;SDS011;60035;52.122;5.406;2022-12-07T16:56:25;5.43;;;1.30;;
72156;SDS011;60035;52.122;5.406;2022-12-07T16:58:58;4.75;;;1.83;;
72156;SDS011;60035;52.122;5.406;2022-12-07T17:01:25;4.72;;;1.20;;
72156;SDS011;60035;52.122;5.406;2022-12-07T17:03:55;4.80;;;1.52;;
72156;SDS011;60035;52.122;5.406;2022-12-07T17:06:23;5.68;;;1.90;;
72156;SDS011;60035;52.122;5.406;2022-12-07T17:08:52;4.25;;;1.35;;
72156;SDS011;60035;52.122;5.406;2022-12-07T17:11:20;7.65;;;1.58;;
72156;SDS011;60035;52.122;5.406;2022-12-07T17:13:52;5.95;;;1.38;;
72156;SDS011;60035;52.122;5.406;2022-12-07T17:16:37;7.22;;;1.30;;
72156;SDS011;60035;52.122;5.406;2022-12-07T17:19:05;4.82;;;1.20;;
72156;SDS011;60035;52.122;5.406;2022-12-07T17:21:33;4.95;;;1.15;;
72156;SDS011;60035;52.122;5.406;2022-12-07T17:24:01;5.75;;;1.02;;
72156;SDS011;60035;52.122;5.406;2022-12-07T17:26:29;8.52;;;1.50;;